createdAt,value
2023-01-17T00:00:28.151Z,6.85
2023-01-17T00:01:07.226Z,5.97
2023-01-17T00:01:39.574Z,6.88
2023-01-17T00:02:12.985Z,7.85
2023-01-17T00:02:45.294Z,6.50
2023-01-17T00:03:17.795Z,6.47
2023-01-17T00:04:08.504Z,7.15
2023-01-17T00:05:00.004Z,6.05
2023-01-17T00:05:50.918Z,5.80
2023-01-17T00:06:42.413Z,6.53
2023-01-17T00:07:33.983Z,6.47
2023-01-17T00:08:25.054Z,5.72
2023-01-17T00:09:16.044Z,6.07
2023-01-17T00:09:54.329Z,6.40
2023-01-17T00:10:27.738Z,6.60
2023-01-17T00:11:00.177Z,6.55
2023-01-17T00:11:32.652Z,5.83
2023-01-17T00:12:05.967Z,6.22
2023-01-17T00:12:38.498Z,7.15
2023-01-17T00:13:11.006Z,7.47
2023-01-17T00:13:43.477Z,7.25
2023-01-17T00:14:15.831Z,7.70
2023-01-17T00:14:48.677Z,7.55
2023-01-17T00:15:23.125Z,7.13
2023-01-17T00:15:55.644Z,7.50
2023-01-17T00:16:28.116Z,6.47
2023-01-17T00:17:03.117Z,6.88
2023-01-17T00:17:35.726Z,6.72
2023-01-17T00:18:08.254Z,7.28
2023-01-17T00:19:00.587Z,7.47
2023-01-17T00:19:51.514Z,7.18
2023-01-17T00:20:50.451Z,6.10
2023-01-17T00:21:41.453Z,6.32
2023-01-17T00:22:42.644Z,5.80
2023-01-17T00:23:35.173Z,4.75
2023-01-17T00:24:26.980Z,4.97
2023-01-17T00:25:18.365Z,5.68
2023-01-17T00:26:05.774Z,5.80
2023-01-17T00:26:58.073Z,5.80
2023-01-17T00:27:31.186Z,6.55
2023-01-17T00:28:04.384Z,5.72
2023-01-17T00:28:40.111Z,5.53
2023-01-17T00:29:12.805Z,4.82
2023-01-17T00:29:45.144Z,6.40
2023-01-17T00:30:17.556Z,6.57
2023-01-17T00:30:50.038Z,6.30
2023-01-17T00:31:22.663Z,6.97
2023-01-17T00:31:55.129Z,6.22
2023-01-17T00:32:27.418Z,7.10
2023-01-17T00:32:59.955Z,7.00
2023-01-17T00:33:32.814Z,6.88
2023-01-17T00:34:05.184Z,6.78
2023-01-17T00:34:37.604Z,7.03
2023-01-17T00:35:10.043Z,6.72
2023-01-17T00:35:42.599Z,6.95
2023-01-17T00:36:14.936Z,6.38
2023-01-17T00:36:47.380Z,6.30
2023-01-17T00:37:19.751Z,6.32
2023-01-17T00:38:01.812Z,6.50
2023-01-17T00:38:36.052Z,6.15
2023-01-17T00:39:08.374Z,5.97
2023-01-17T00:39:40.710Z,6.13
2023-01-17T00:40:13.073Z,7.18
2023-01-17T00:40:46.048Z,6.22
2023-01-17T00:41:18.491Z,6.22
2023-01-17T00:41:50.725Z,6.38
2023-01-17T00:42:22.965Z,6.73
2023-01-17T00:43:14.075Z,6.65
2023-01-17T00:44:05.165Z,6.35
2023-01-17T00:44:56.105Z,6.50
2023-01-17T00:45:47.086Z,6.78
2023-01-17T00:46:38.701Z,5.70
2023-01-17T00:47:29.600Z,6.93
2023-01-17T00:48:20.565Z,6.32
2023-01-17T00:49:11.962Z,6.55
2023-01-17T00:50:03.108Z,6.50
2023-01-17T00:50:55.303Z,6.20
2023-01-17T00:51:47.019Z,5.47
2023-01-17T00:52:37.821Z,7.00
2023-01-17T00:53:28.878Z,6.03
2023-01-17T00:54:20.184Z,6.82
2023-01-17T00:55:11.056Z,7.05
2023-01-17T00:56:02.110Z,7.07
2023-01-17T00:56:53.310Z,6.82
2023-01-17T00:57:44.068Z,7.38
2023-01-17T00:58:34.860Z,6.88
2023-01-17T00:59:26.213Z,6.32
2023-01-17T01:00:17.061Z,6.93
2023-01-17T01:01:08.261Z,7.57
2023-01-17T01:01:59.352Z,6.20
2023-01-17T01:02:50.919Z,5.57
2023-01-17T01:03:41.717Z,6.72
2023-01-17T01:04:32.885Z,5.40
2023-01-17T01:05:24.029Z,6.00
2023-01-17T01:06:15.111Z,6.10
2023-01-17T01:07:05.937Z,6.15
2023-01-17T01:07:57.080Z,6.15
2023-01-17T01:08:48.626Z,6.53
2023-01-17T01:09:39.864Z,5.13
2023-01-17T01:10:31.097Z,6.70
2023-01-17T01:11:25.836Z,6.00
2023-01-17T01:12:16.752Z,5.90
2023-01-17T01:13:07.464Z,6.10
2023-01-17T01:13:58.403Z,6.05
2023-01-17T01:14:49.348Z,5.68
2023-01-17T01:15:40.353Z,6.18
2023-01-17T01:16:31.823Z,5.60
2023-01-17T01:17:23.130Z,5.03
2023-01-17T01:18:14.582Z,5.97
2023-01-17T01:19:05.744Z,6.43
2023-01-17T01:19:57.100Z,5.30
2023-01-17T01:20:47.974Z,5.57
2023-01-17T01:21:38.837Z,6.45
2023-01-17T01:22:29.439Z,6.00
2023-01-17T01:23:24.057Z,6.80
2023-01-17T01:24:15.006Z,5.85
2023-01-17T01:25:06.312Z,5.93
2023-01-17T01:25:57.114Z,6.60
2023-01-17T01:26:47.799Z,6.97
2023-01-17T01:27:38.884Z,6.25
2023-01-17T01:28:31.250Z,6.95
2023-01-17T01:29:22.220Z,6.63
2023-01-17T01:30:13.243Z,6.30
2023-01-17T01:31:03.985Z,7.05
2023-01-17T01:31:54.888Z,7.13
2023-01-17T01:32:46.211Z,6.55
2023-01-17T01:33:21.769Z,6.87
2023-01-17T01:33:54.538Z,6.93
2023-01-17T01:34:26.966Z,6.68
2023-01-17T01:34:59.516Z,7.28
2023-01-17T01:35:31.982Z,7.22
2023-01-17T01:36:05.274Z,7.00
2023-01-17T01:36:37.989Z,8.05
2023-01-17T01:37:10.416Z,7.38
2023-01-17T01:37:43.043Z,7.43
2023-01-17T01:38:16.008Z,7.10
2023-01-17T01:38:48.479Z,7.68
2023-01-17T01:39:21.031Z,6.80
2023-01-17T01:39:53.347Z,7.07
2023-01-17T01:40:25.812Z,7.88
2023-01-17T01:40:58.498Z,7.65
2023-01-17T01:41:31.031Z,6.85
2023-01-17T01:42:03.667Z,7.50
2023-01-17T01:42:36.124Z,7.20
2023-01-17T01:43:11.118Z,7.55
2023-01-17T01:43:45.281Z,6.95
2023-01-17T01:44:36.664Z,7.90
2023-01-17T01:45:20.776Z,7.03
2023-01-17T01:45:54.597Z,7.05
2023-01-17T01:46:29.566Z,7.05
2023-01-17T01:47:02.171Z,7.57
2023-01-17T01:47:37.617Z,7.82
2023-01-17T01:48:28.958Z,7.90
2023-01-17T01:49:03.550Z,6.95
2023-01-17T01:49:35.974Z,7.57
2023-01-17T01:50:09.533Z,7.57
2023-01-17T01:50:41.902Z,7.38
2023-01-17T01:51:16.481Z,6.80
2023-01-17T01:51:54.746Z,6.93
2023-01-17T01:52:29.199Z,7.10
2023-01-17T01:53:02.901Z,6.50
2023-01-17T01:53:37.107Z,7.50
2023-01-17T01:54:13.074Z,7.72
2023-01-17T01:54:53.647Z,7.53
2023-01-17T01:55:27.955Z,7.40
2023-01-17T01:56:00.611Z,7.20
2023-01-17T01:56:33.803Z,6.75
2023-01-17T01:57:07.545Z,7.35
2023-01-17T01:57:42.633Z,7.35
2023-01-17T01:58:19.112Z,7.60
2023-01-17T01:58:53.142Z,7.97
2023-01-17T01:59:26.661Z,7.43
2023-01-17T02:00:02.287Z,7.60
2023-01-17T02:00:44.180Z,7.55
2023-01-17T02:01:17.746Z,7.25
2023-01-17T02:01:51.521Z,7.28
2023-01-17T02:02:24.115Z,8.10
2023-01-17T02:02:59.140Z,6.75
2023-01-17T02:03:32.906Z,7.53
2023-01-17T02:04:10.116Z,7.65
2023-01-17T02:04:43.255Z,7.75
2023-01-17T02:05:17.296Z,7.50
2023-01-17T02:05:49.935Z,7.40
2023-01-17T02:06:31.176Z,7.65
2023-01-17T02:07:07.806Z,7.95
2023-01-17T02:07:43.452Z,7.60
2023-01-17T02:08:17.648Z,7.53
2023-01-17T02:08:50.025Z,7.82
2023-01-17T02:09:22.691Z,8.07
2023-01-17T02:09:54.936Z,8.00
2023-01-17T02:10:27.447Z,8.20
2023-01-17T02:10:59.861Z,6.82
2023-01-17T02:11:32.735Z,7.43
2023-01-17T02:12:05.877Z,7.88
2023-01-17T02:12:38.697Z,8.35
2023-01-17T02:13:12.232Z,7.72
2023-01-17T02:13:44.621Z,7.20
2023-01-17T02:14:17.900Z,7.28
2023-01-17T02:14:50.634Z,7.72
2023-01-17T02:15:25.774Z,8.43
2023-01-17T02:16:04.600Z,7.75
2023-01-17T02:16:54.769Z,7.53
2023-01-17T02:17:45.887Z,9.05
2023-01-17T02:18:24.350Z,7.70
2023-01-17T02:19:02.646Z,7.40
2023-01-17T02:19:47.143Z,7.00
2023-01-17T02:20:25.548Z,6.90
2023-01-17T02:20:59.077Z,6.65
2023-01-17T02:21:44.315Z,7.85
2023-01-17T02:22:16.657Z,8.95
2023-01-17T02:22:48.998Z,9.07
2023-01-17T02:23:33.519Z,9.65
2023-01-17T02:24:08.588Z,7.80
2023-01-17T02:24:43.721Z,9.00
2023-01-17T02:25:27.583Z,8.27
2023-01-17T02:26:18.663Z,7.50
2023-01-17T02:26:56.756Z,7.87
2023-01-17T02:27:40.171Z,7.47
2023-01-17T02:28:31.429Z,7.55
2023-01-17T02:29:07.387Z,7.43
2023-01-17T02:29:57.744Z,7.07
2023-01-17T02:30:37.649Z,7.07
2023-01-17T02:31:15.035Z,7.53
2023-01-17T02:31:47.557Z,7.88
2023-01-17T02:32:45.558Z,8.18
2023-01-17T02:33:25.435Z,7.43
2023-01-17T02:34:01.603Z,7.93
2023-01-17T02:34:46.342Z,7.47
2023-01-17T02:35:48.032Z,7.85
2023-01-17T02:36:24.077Z,8.02
2023-01-17T02:37:01.345Z,8.10
2023-01-17T02:37:35.392Z,9.70
2023-01-17T02:38:13.926Z,10.45
2023-01-17T02:38:51.637Z,14.60
2023-01-17T02:39:28.150Z,10.95
2023-01-17T02:40:07.069Z,11.45
2023-01-17T02:40:45.512Z,11.33
2023-01-17T02:41:17.937Z,8.38
2023-01-17T02:42:10.678Z,8.32
2023-01-17T02:42:46.715Z,8.80
2023-01-17T02:43:20.941Z,8.98
2023-01-17T02:43:53.963Z,8.20
2023-01-17T02:44:26.521Z,8.27
2023-01-17T02:44:58.901Z,9.05
2023-01-17T02:45:31.650Z,8.35
2023-01-17T02:46:04.722Z,8.25
2023-01-17T02:46:46.135Z,8.35
2023-01-17T02:47:26.183Z,7.57
2023-01-17T02:47:58.563Z,8.10
2023-01-17T02:48:32.564Z,8.30
2023-01-17T02:49:04.986Z,7.85
2023-01-17T02:49:37.405Z,8.45
2023-01-17T02:50:13.556Z,7.55
2023-01-17T02:51:15.362Z,7.80
2023-01-17T02:52:07.384Z,7.43
2023-01-17T02:52:52.099Z,7.55
2023-01-17T02:53:30.241Z,7.90
2023-01-17T02:54:20.799Z,7.50
2023-01-17T02:55:02.122Z,7.43
2023-01-17T02:55:37.463Z,7.85
2023-01-17T02:56:15.782Z,8.00
2023-01-17T02:56:59.992Z,8.30
2023-01-17T02:57:35.272Z,8.68
2023-01-17T02:58:16.539Z,8.70
2023-01-17T02:59:01.223Z,7.93
2023-01-17T02:59:42.416Z,7.75
2023-01-17T03:00:23.986Z,8.23
2023-01-17T03:01:18.017Z,7.97
2023-01-17T03:02:05.496Z,7.55
2023-01-17T03:02:45.977Z,8.05
2023-01-17T03:03:27.445Z,8.00
2023-01-17T03:04:15.288Z,7.72
2023-01-17T03:04:50.539Z,7.60
2023-01-17T03:05:30.117Z,7.45
2023-01-17T03:06:20.908Z,7.47
2023-01-17T03:07:00.808Z,7.45
2023-01-17T03:07:33.728Z,7.47
2023-01-17T03:08:06.771Z,8.50
2023-01-17T03:08:41.038Z,7.68
2023-01-17T03:09:14.963Z,8.00
2023-01-17T03:09:49.255Z,9.30
2023-01-17T03:10:22.016Z,8.60
2023-01-17T03:10:54.766Z,8.23
2023-01-17T03:11:27.815Z,8.30
2023-01-17T03:12:00.439Z,9.07
2023-01-17T03:12:33.998Z,8.57
2023-01-17T03:13:06.361Z,7.90
2023-01-17T03:13:38.960Z,8.15
2023-01-17T03:14:12.786Z,8.07
2023-01-17T03:14:45.162Z,8.88
2023-01-17T03:15:17.937Z,8.75
2023-01-17T03:15:50.332Z,8.32
2023-01-17T03:16:23.620Z,8.63
2023-01-17T03:16:56.127Z,8.55
2023-01-17T03:17:32.479Z,9.38
2023-01-17T03:18:06.051Z,8.02
2023-01-17T03:18:39.178Z,8.60
2023-01-17T03:19:11.865Z,9.10
2023-01-17T03:19:44.295Z,8.15
2023-01-17T03:20:16.933Z,8.73
2023-01-17T03:20:49.349Z,8.55
2023-01-17T03:21:22.885Z,8.43
2023-01-17T03:21:55.195Z,8.57
2023-01-17T03:22:27.564Z,8.68
2023-01-17T03:23:00.042Z,8.80
2023-01-17T03:23:32.637Z,8.23
2023-01-17T03:24:05.095Z,8.63
2023-01-17T03:24:37.881Z,8.30
2023-01-17T03:25:10.423Z,8.98
2023-01-17T03:25:42.814Z,8.90
2023-01-17T03:26:15.875Z,7.75
2023-01-17T03:26:48.520Z,7.53
2023-01-17T03:27:20.829Z,8.27
2023-01-17T03:27:53.316Z,8.75
2023-01-17T03:28:25.738Z,10.98
2023-01-17T03:28:58.080Z,10.13
2023-01-17T03:29:30.550Z,9.97
2023-01-17T03:30:03.225Z,11.68
2023-01-17T03:30:35.880Z,9.10
2023-01-17T03:31:08.367Z,9.50
2023-01-17T03:31:41.086Z,8.18
2023-01-17T03:32:13.479Z,8.20
2023-01-17T03:32:45.848Z,8.90
2023-01-17T03:33:18.763Z,9.27
2023-01-17T03:33:51.140Z,8.55
2023-01-17T03:34:23.796Z,8.40
2023-01-17T03:34:56.305Z,8.90
2023-01-17T03:35:28.836Z,8.52
2023-01-17T03:36:01.270Z,8.30
2023-01-17T03:36:33.796Z,8.63
2023-01-17T03:37:06.289Z,8.23
2023-01-17T03:37:38.621Z,8.82
2023-01-17T03:38:11.323Z,10.07
2023-01-17T03:38:43.792Z,8.93
2023-01-17T03:39:16.281Z,8.40
2023-01-17T03:39:48.711Z,8.43
2023-01-17T03:40:21.060Z,8.93
2023-01-17T03:40:53.501Z,8.00
2023-01-17T03:41:25.962Z,7.65
2023-01-17T03:41:58.308Z,7.75
2023-01-17T03:42:30.854Z,8.30
2023-01-17T03:43:03.228Z,8.02
2023-01-17T03:43:35.651Z,8.43
2023-01-17T03:44:08.184Z,8.18
2023-01-17T03:44:40.938Z,9.10
2023-01-17T03:45:13.461Z,7.90
2023-01-17T03:45:48.893Z,8.67
2023-01-17T03:46:25.195Z,8.80
2023-01-17T03:46:57.415Z,8.38
2023-01-17T03:47:30.114Z,8.57
2023-01-17T03:48:02.647Z,8.18
2023-01-17T03:48:34.980Z,8.10
2023-01-17T03:49:07.452Z,8.88
2023-01-17T03:49:40.502Z,8.68
2023-01-17T03:50:13.870Z,8.00
2023-01-17T03:50:46.223Z,8.23
2023-01-17T03:51:19.001Z,8.37
2023-01-17T03:51:51.748Z,8.75
2023-01-17T03:52:24.138Z,8.35
2023-01-17T03:52:56.544Z,8.57
2023-01-17T03:53:29.109Z,8.68
2023-01-17T03:54:01.401Z,8.98
2023-01-17T03:54:33.966Z,9.25
2023-01-17T03:55:06.875Z,9.15
2023-01-17T03:55:39.517Z,9.45
2023-01-17T03:56:11.840Z,8.80
2023-01-17T03:56:44.640Z,9.23
2023-01-17T03:57:17.402Z,9.20
2023-01-17T03:57:49.738Z,9.40
2023-01-17T03:58:22.457Z,9.40
2023-01-17T03:58:55.197Z,8.95
2023-01-17T03:59:27.708Z,9.20
2023-01-17T04:00:00.231Z,9.60
2023-01-17T04:00:32.629Z,9.30
2023-01-17T04:01:05.231Z,9.15
2023-01-17T04:01:37.691Z,8.82
2023-01-17T04:02:10.173Z,9.10
2023-01-17T04:02:42.778Z,9.55
2023-01-17T04:03:15.616Z,9.57
2023-01-17T04:03:48.108Z,9.90
2023-01-17T04:04:20.446Z,9.20
2023-01-17T04:04:52.750Z,8.48
2023-01-17T04:05:25.311Z,8.98
2023-01-17T04:05:57.995Z,8.75
2023-01-17T04:06:30.469Z,7.88
2023-01-17T04:07:02.779Z,8.63
2023-01-17T04:07:35.458Z,9.03
2023-01-17T04:08:07.921Z,8.23
2023-01-17T04:08:40.439Z,8.70
2023-01-17T04:09:12.723Z,8.57
2023-01-17T04:09:45.326Z,8.95
2023-01-17T04:10:17.705Z,8.30
2023-01-17T04:10:50.310Z,8.90
2023-01-17T04:11:22.996Z,9.27
2023-01-17T04:11:55.385Z,9.80
2023-01-17T04:12:28.113Z,8.75
2023-01-17T04:13:00.510Z,10.50
2023-01-17T04:13:32.907Z,9.40
2023-01-17T04:14:05.639Z,9.20
2023-01-17T04:14:37.984Z,9.65
2023-01-17T04:15:10.628Z,8.95
2023-01-17T04:15:46.508Z,8.93
2023-01-17T04:16:19.058Z,8.52
2023-01-17T04:16:51.639Z,8.90
2023-01-17T04:17:24.017Z,9.05
2023-01-17T04:17:56.767Z,8.73
2023-01-17T04:18:29.088Z,9.00
2023-01-17T04:19:01.610Z,8.45
2023-01-17T04:19:35.979Z,9.27
2023-01-17T04:20:14.243Z,8.43
2023-01-17T04:20:46.908Z,8.35
2023-01-17T04:21:19.578Z,8.20
2023-01-17T04:21:51.825Z,8.88
2023-01-17T04:22:24.221Z,8.82
2023-01-17T04:22:56.885Z,9.13
2023-01-17T04:23:29.318Z,8.88
2023-01-17T04:24:01.641Z,8.23
2023-01-17T04:24:34.032Z,8.30
2023-01-17T04:25:06.761Z,8.40
2023-01-17T04:25:39.278Z,8.70
2023-01-17T04:26:12.395Z,9.10
2023-01-17T04:26:45.119Z,8.70
2023-01-17T04:27:17.560Z,8.65
2023-01-17T04:27:50.079Z,8.18
2023-01-17T04:28:22.571Z,9.15
2023-01-17T04:28:55.235Z,8.52
2023-01-17T04:29:27.721Z,8.03
2023-01-17T04:30:00.257Z,8.70
2023-01-17T04:30:33.086Z,9.00
2023-01-17T04:31:05.737Z,9.25
2023-01-17T04:31:38.227Z,9.90
2023-01-17T04:32:10.783Z,10.25
2023-01-17T04:32:43.162Z,10.35
2023-01-17T04:33:15.470Z,10.32
2023-01-17T04:33:48.259Z,10.40
2023-01-17T04:34:20.803Z,10.35
2023-01-17T04:34:53.436Z,11.37
2023-01-17T04:35:25.968Z,11.05
2023-01-17T04:35:58.373Z,12.07
2023-01-17T04:36:30.840Z,14.95
2023-01-17T04:37:03.234Z,17.42
2023-01-17T04:37:36.001Z,17.33
2023-01-17T04:38:08.710Z,17.50
2023-01-17T04:38:41.346Z,17.92
2023-01-17T04:39:13.659Z,17.77
2023-01-17T04:39:46.130Z,15.90
2023-01-17T04:40:18.607Z,15.57
2023-01-17T04:40:51.574Z,13.90
2023-01-17T04:41:24.054Z,13.13
2023-01-17T04:41:56.371Z,13.38
2023-01-17T04:42:29.055Z,12.60
2023-01-17T04:43:01.438Z,13.30
2023-01-17T04:43:34.440Z,13.68
2023-01-17T04:44:07.010Z,13.25
2023-01-17T04:44:39.488Z,13.25
2023-01-17T04:45:12.547Z,13.50
2023-01-17T04:45:44.847Z,13.63
2023-01-17T04:46:17.214Z,14.23
2023-01-17T04:46:49.675Z,14.02
2023-01-17T04:47:22.401Z,14.30
2023-01-17T04:47:55.138Z,14.63
2023-01-17T04:48:27.722Z,14.60
2023-01-17T04:49:00.751Z,15.27
2023-01-17T04:49:33.354Z,14.50
2023-01-17T04:50:07.273Z,14.65
2023-01-17T04:50:40.031Z,13.95
2023-01-17T04:51:12.568Z,15.27
2023-01-17T04:51:44.974Z,13.25
2023-01-17T04:52:18.927Z,11.88
2023-01-17T04:52:51.393Z,11.98
2023-01-17T04:53:23.732Z,11.90
2023-01-17T04:53:56.415Z,9.45
2023-01-17T04:54:28.775Z,9.40
2023-01-17T04:55:01.955Z,9.93
2023-01-17T04:55:34.463Z,8.60
2023-01-17T04:56:07.039Z,8.80
2023-01-17T04:56:39.401Z,9.27
2023-01-17T04:57:12.269Z,9.20
2023-01-17T04:57:44.841Z,8.65
2023-01-17T04:58:17.245Z,9.50
2023-01-17T04:58:49.731Z,9.48
2023-01-17T04:59:22.279Z,9.00
2023-01-17T04:59:54.635Z,9.45
2023-01-17T05:00:27.043Z,9.18
2023-01-17T05:01:06.931Z,10.30
2023-01-17T05:01:39.844Z,9.23
2023-01-17T05:02:12.721Z,9.50
2023-01-17T05:02:45.381Z,9.25
2023-01-17T05:03:18.653Z,9.70
2023-01-17T05:03:51.180Z,9.00
2023-01-17T05:04:23.646Z,9.38
2023-01-17T05:04:56.113Z,9.02
2023-01-17T05:05:28.600Z,10.35
2023-01-17T05:06:01.406Z,12.90
2023-01-17T05:06:33.900Z,15.90
2023-01-17T05:07:06.657Z,15.57
2023-01-17T05:07:39.076Z,17.23
2023-01-17T05:08:11.680Z,19.10
2023-01-17T05:08:44.276Z,17.98
2023-01-17T05:09:16.623Z,16.17
2023-01-17T05:09:49.071Z,16.02
2023-01-17T05:10:21.644Z,13.15
2023-01-17T05:10:54.092Z,12.57
2023-01-17T05:11:26.603Z,11.52
2023-01-17T05:11:59.029Z,12.50
2023-01-17T05:12:31.440Z,11.13
2023-01-17T05:13:04.187Z,13.50
2023-01-17T05:13:36.658Z,13.18
2023-01-17T05:14:10.058Z,16.63
2023-01-17T05:14:42.538Z,20.05
2023-01-17T05:15:15.360Z,19.42
2023-01-17T05:15:47.959Z,14.32
2023-01-17T05:16:20.430Z,12.27
2023-01-17T05:16:53.740Z,11.82
2023-01-17T05:17:26.082Z,10.68
2023-01-17T05:17:59.083Z,9.70
2023-01-17T05:18:31.892Z,9.93
2023-01-17T05:19:04.212Z,8.98
2023-01-17T05:19:36.913Z,9.85
2023-01-17T05:20:09.903Z,9.88
2023-01-17T05:20:42.459Z,10.35
2023-01-17T05:21:14.853Z,10.13
2023-01-17T05:21:47.314Z,10.57
2023-01-17T05:22:19.724Z,11.02
2023-01-17T05:22:57.019Z,10.32
2023-01-17T05:23:29.553Z,9.32
2023-01-17T05:24:01.857Z,10.30
2023-01-17T05:24:34.288Z,9.77
2023-01-17T05:25:07.080Z,10.90
2023-01-17T05:25:44.627Z,10.85
2023-01-17T05:26:17.286Z,9.80
2023-01-17T05:26:54.998Z,9.43
2023-01-17T05:27:27.571Z,9.60
2023-01-17T05:28:00.464Z,9.55
2023-01-17T05:28:33.052Z,9.57
2023-01-17T05:29:05.762Z,8.93
2023-01-17T05:29:38.833Z,9.23
2023-01-17T05:30:11.589Z,9.18
2023-01-17T05:30:44.283Z,9.77
2023-01-17T05:31:16.822Z,9.10
2023-01-17T05:31:49.244Z,9.55
2023-01-17T05:32:21.535Z,8.00
2023-01-17T05:32:54.956Z,8.57
2023-01-17T05:33:27.332Z,8.80
2023-01-17T05:33:59.667Z,11.32
2023-01-17T05:34:31.986Z,12.70
2023-01-17T05:35:04.695Z,15.67
2023-01-17T05:35:37.826Z,16.17
2023-01-17T05:36:11.264Z,16.02
2023-01-17T05:36:43.612Z,13.50
2023-01-17T05:37:16.065Z,13.35
2023-01-17T05:37:49.412Z,11.82
2023-01-17T05:38:22.978Z,12.10
2023-01-17T05:38:55.743Z,13.52
2023-01-17T05:39:28.215Z,19.98
2023-01-17T05:40:00.695Z,15.02
2023-01-17T05:40:33.613Z,19.57
2023-01-17T05:41:06.101Z,19.27
2023-01-17T05:41:38.475Z,18.35
2023-01-17T05:42:10.932Z,15.27
2023-01-17T05:42:50.138Z,15.75
2023-01-17T05:43:23.178Z,14.02
2023-01-17T05:43:55.669Z,12.75
2023-01-17T05:44:28.188Z,12.60
2023-01-17T05:45:00.614Z,13.25
2023-01-17T05:45:33.862Z,14.10
2023-01-17T05:46:06.300Z,14.40
2023-01-17T05:46:38.737Z,12.48
2023-01-17T05:47:11.218Z,13.05
2023-01-17T05:47:44.336Z,12.73
2023-01-17T05:48:17.047Z,15.45
2023-01-17T05:48:49.465Z,12.68
2023-01-17T05:49:21.964Z,15.25
2023-01-17T05:49:54.465Z,13.65
2023-01-17T05:50:28.542Z,11.70
2023-01-17T05:51:02.120Z,11.70
2023-01-17T05:51:37.956Z,11.43
2023-01-17T05:52:10.469Z,13.27
2023-01-17T05:52:48.952Z,15.32
2023-01-17T05:53:21.436Z,13.00
2023-01-17T05:53:53.800Z,14.40
2023-01-17T05:54:26.208Z,11.45
2023-01-17T05:54:58.499Z,12.25
2023-01-17T05:55:31.716Z,11.73
2023-01-17T05:56:04.245Z,12.70
2023-01-17T05:56:36.980Z,12.57
2023-01-17T05:57:09.488Z,11.83
2023-01-17T05:57:41.997Z,12.68
2023-01-17T05:58:15.961Z,13.00
2023-01-17T05:58:48.263Z,13.65
2023-01-17T05:59:32.421Z,14.10
2023-01-17T06:00:09.195Z,12.20
2023-01-17T06:00:41.809Z,12.55
2023-01-17T06:01:14.307Z,12.48
2023-01-17T06:01:46.728Z,13.80
2023-01-17T06:02:19.118Z,13.25
2023-01-17T06:02:53.651Z,14.37
2023-01-17T06:03:26.174Z,13.70
2023-01-17T06:03:58.535Z,11.75
2023-01-17T06:04:31.157Z,12.75
2023-01-17T06:05:03.892Z,12.25
2023-01-17T06:05:36.447Z,12.13
2023-01-17T06:06:08.783Z,12.25
2023-01-17T06:06:41.110Z,13.30
2023-01-17T06:07:13.387Z,13.60
2023-01-17T06:07:46.275Z,11.90
2023-01-17T06:08:18.772Z,11.50
2023-01-17T06:08:51.336Z,11.57
2023-01-17T06:09:23.749Z,12.75
2023-01-17T06:09:56.131Z,13.00
2023-01-17T06:10:29.705Z,12.20
2023-01-17T06:11:02.208Z,10.52
2023-01-17T06:11:34.750Z,10.70
2023-01-17T06:12:07.177Z,10.93
2023-01-17T06:12:39.887Z,11.68
2023-01-17T06:13:13.914Z,10.95
2023-01-17T06:13:48.377Z,10.13
2023-01-17T06:14:20.847Z,10.48
2023-01-17T06:14:53.348Z,10.35
2023-01-17T06:15:25.866Z,10.88
2023-01-17T06:16:03.035Z,10.13
2023-01-17T06:16:36.404Z,9.68
2023-01-17T06:17:08.911Z,10.15
2023-01-17T06:17:41.850Z,9.57
2023-01-17T06:18:16.069Z,9.77
2023-01-17T06:18:48.571Z,9.75
2023-01-17T06:19:21.076Z,10.13
2023-01-17T06:19:53.519Z,9.68
2023-01-17T06:20:26.032Z,9.55
2023-01-17T06:20:58.788Z,9.15
2023-01-17T06:21:31.343Z,8.77
2023-01-17T06:22:06.845Z,8.98
2023-01-17T06:22:39.568Z,8.82
2023-01-17T06:23:13.189Z,8.98
2023-01-17T06:23:46.018Z,10.07
2023-01-17T06:24:18.538Z,15.25
2023-01-17T06:24:50.791Z,19.07
2023-01-17T06:25:23.483Z,18.58
2023-01-17T06:25:56.221Z,16.48
2023-01-17T06:26:28.877Z,16.45
2023-01-17T06:27:01.322Z,15.50
2023-01-17T06:27:33.811Z,13.77
2023-01-17T06:28:08.920Z,13.95
2023-01-17T06:28:41.235Z,15.30
2023-01-17T06:29:13.743Z,14.27
2023-01-17T06:29:46.271Z,14.65
2023-01-17T06:30:18.697Z,14.70
2023-01-17T06:30:51.147Z,14.68
2023-01-17T06:31:23.680Z,14.48
2023-01-17T06:31:56.243Z,16.33
2023-01-17T06:32:28.683Z,16.02
2023-01-17T06:33:01.037Z,11.27
2023-01-17T06:33:33.441Z,11.27
2023-01-17T06:34:06.154Z,9.43
2023-01-17T06:34:38.693Z,10.98
2023-01-17T06:35:11.419Z,10.82
2023-01-17T06:35:50.372Z,10.17
2023-01-17T06:36:24.737Z,11.27
2023-01-17T06:36:57.267Z,14.25
2023-01-17T06:37:29.772Z,14.45
2023-01-17T06:38:02.354Z,13.55
2023-01-17T06:38:34.968Z,13.88
2023-01-17T06:39:07.856Z,15.75
2023-01-17T06:39:40.298Z,17.02
2023-01-17T06:40:13.256Z,14.90
2023-01-17T06:40:45.694Z,12.35
2023-01-17T06:41:18.108Z,12.87
2023-01-17T06:41:50.613Z,12.90
2023-01-17T06:42:23.556Z,13.00
2023-01-17T06:42:59.800Z,12.50
2023-01-17T06:43:34.073Z,12.73
2023-01-17T06:44:07.860Z,11.60
2023-01-17T06:44:40.290Z,11.68
2023-01-17T06:45:12.681Z,12.25
2023-01-17T06:45:44.977Z,11.82
2023-01-17T06:46:17.660Z,11.38
2023-01-17T06:46:50.111Z,12.20
2023-01-17T06:47:22.671Z,11.07
2023-01-17T06:47:55.115Z,11.77
2023-01-17T06:48:27.636Z,11.98
2023-01-17T06:49:00.161Z,10.70
2023-01-17T06:49:32.566Z,11.68
2023-01-17T06:50:05.526Z,11.20
2023-01-17T06:50:38.333Z,11.02
2023-01-17T06:51:11.433Z,12.02
2023-01-17T06:51:43.852Z,11.73
2023-01-17T06:52:16.194Z,12.10
2023-01-17T06:52:58.389Z,12.65
2023-01-17T06:53:30.706Z,17.17
2023-01-17T06:54:03.111Z,18.98
2023-01-17T06:54:35.536Z,15.32
2023-01-17T06:55:08.798Z,16.08
2023-01-17T06:55:41.598Z,17.23
2023-01-17T06:56:14.076Z,16.98
2023-01-17T06:56:46.511Z,15.73
2023-01-17T06:57:19.053Z,15.13
2023-01-17T06:57:51.844Z,15.37
2023-01-17T06:58:24.320Z,13.82
2023-01-17T06:58:56.661Z,13.60
2023-01-17T06:59:29.700Z,13.90
2023-01-17T07:00:02.347Z,12.93
2023-01-17T07:00:40.326Z,12.98
2023-01-17T07:01:13.547Z,11.60
2023-01-17T07:01:46.515Z,11.43
2023-01-17T07:02:19.006Z,11.60
2023-01-17T07:02:52.132Z,11.43
2023-01-17T07:03:26.503Z,10.77
2023-01-17T07:03:59.060Z,12.20
2023-01-17T07:04:31.696Z,10.88
2023-01-17T07:05:04.195Z,10.93
2023-01-17T07:05:36.761Z,10.45
2023-01-17T07:06:11.906Z,10.48
2023-01-17T07:06:44.812Z,10.10
2023-01-17T07:07:17.275Z,10.95
2023-01-17T07:07:49.968Z,12.35
2023-01-17T07:08:22.499Z,13.60
2023-01-17T07:08:55.957Z,17.57
2023-01-17T07:09:28.276Z,17.05
2023-01-17T07:10:01.427Z,16.00
2023-01-17T07:10:33.965Z,15.40
2023-01-17T07:11:08.265Z,16.13
2023-01-17T07:11:40.666Z,16.73
2023-01-17T07:12:13.098Z,16.30
2023-01-17T07:12:45.832Z,15.18
2023-01-17T07:13:18.329Z,15.95
2023-01-17T07:13:51.172Z,15.43
2023-01-17T07:14:23.523Z,15.50
2023-01-17T07:14:56.107Z,14.93
2023-01-17T07:15:28.719Z,14.52
2023-01-17T07:16:01.697Z,14.00
2023-01-17T07:16:34.265Z,13.90
2023-01-17T07:17:06.821Z,13.23
2023-01-17T07:17:39.704Z,12.90
2023-01-17T07:18:12.050Z,11.02
2023-01-17T07:18:44.425Z,11.98
2023-01-17T07:19:16.776Z,12.85
2023-01-17T07:19:49.118Z,11.70
2023-01-17T07:20:21.596Z,11.50
2023-01-17T07:20:54.135Z,12.57
2023-01-17T07:21:26.709Z,12.63
2023-01-17T07:21:59.250Z,13.77
2023-01-17T07:22:31.780Z,12.40
2023-01-17T07:23:04.129Z,12.95
2023-01-17T07:23:36.478Z,11.95
2023-01-17T07:24:09.424Z,11.88
2023-01-17T07:24:41.796Z,11.65
2023-01-17T07:25:14.210Z,11.67
2023-01-17T07:25:56.293Z,11.60
2023-01-17T07:26:28.843Z,11.80
2023-01-17T07:27:01.120Z,12.32
2023-01-17T07:27:33.767Z,12.73
2023-01-17T07:28:06.233Z,11.38
2023-01-17T07:28:38.518Z,11.68
2023-01-17T07:29:10.867Z,11.73
2023-01-17T07:29:43.309Z,11.95
2023-01-17T07:30:16.206Z,12.73
2023-01-17T07:30:48.892Z,12.10
2023-01-17T07:31:21.361Z,12.88
2023-01-17T07:31:53.945Z,13.63
2023-01-17T07:32:26.863Z,12.73
2023-01-17T07:32:59.335Z,13.05
2023-01-17T07:33:31.819Z,13.65
2023-01-17T07:34:04.274Z,14.05
2023-01-17T07:34:37.177Z,14.13
2023-01-17T07:35:09.890Z,14.65
2023-01-17T07:35:42.559Z,16.95
2023-01-17T07:36:15.126Z,17.93
2023-01-17T07:36:49.836Z,18.73
2023-01-17T07:37:22.232Z,17.30
2023-01-17T07:37:55.230Z,17.42
2023-01-17T07:38:27.731Z,15.45
2023-01-17T07:39:00.202Z,14.45
2023-01-17T07:39:32.709Z,14.07
2023-01-17T07:40:05.254Z,16.70
2023-01-17T07:40:42.005Z,14.95
2023-01-17T07:41:14.837Z,11.52
2023-01-17T07:41:47.668Z,11.00
2023-01-17T07:42:20.085Z,12.20
2023-01-17T07:42:52.637Z,10.95
2023-01-17T07:43:25.358Z,10.18
2023-01-17T07:43:59.718Z,9.10
2023-01-17T07:44:32.452Z,11.38
2023-01-17T07:45:05.088Z,12.32
2023-01-17T07:45:37.476Z,11.35
2023-01-17T07:46:10.261Z,12.23
2023-01-17T07:46:42.671Z,11.48
2023-01-17T07:47:15.226Z,8.53
2023-01-17T07:47:49.112Z,8.90
2023-01-17T07:48:23.076Z,11.65